sensor_id;sensor_type;location;lat;lon;timestamp;temperature;humidity
32356;DHT22;62578;53.556;9.914;2022-08-04T00:01:14;26.10;63.80
32356;DHT22;62578;53.556;9.914;2022-08-04T00:03:59;26.10;63.70
32356;DHT22;62578;53.556;9.914;2022-08-04T00:07:03;26.10;63.90
32356;DHT22;62578;53.556;9.914;2022-08-04T00:09:59;26.20;64.00
32356;DHT22;62578;53.556;9.914;2022-08-04T00:12:28;26.20;63.80
32356;DHT22;62578;53.556;9.914;2022-08-04T00:14:58;26.20;63.60
32356;DHT22;62578;53.556;9.914;2022-08-04T00:17:30;26.20;63.70
32356;DHT22;62578;53.556;9.914;2022-08-04T00:19:59;26.20;63.80
32356;DHT22;62578;53.556;9.914;2022-08-04T00:22:29;26.20;63.80
32356;DHT22;62578;53.556;9.914;2022-08-04T00:24:56;26.20;63.90
32356;DHT22;62578;53.556;9.914;2022-08-04T00:27:22;26.20;63.80
32356;DHT22;62578;53.556;9.914;2022-08-04T00:29:48;26.20;63.80
32356;DHT22;62578;53.556;9.914;2022-08-04T00:32:16;26.20;63.60
32356;DHT22;62578;53.556;9.914;2022-08-04T00:34:43;26.20;63.60
32356;DHT22;62578;53.556;9.914;2022-08-04T00:37:09;26.20;63.50
32356;DHT22;62578;53.556;9.914;2022-08-04T00:39:35;26.20;63.60
32356;DHT22;62578;53.556;9.914;2022-08-04T00:42:16;26.20;63.50
32356;DHT22;62578;53.556;9.914;2022-08-04T00:50:34;26.20;63.60
32356;DHT22;62578;53.556;9.914;2022-08-04T00:53:31;26.20;63.50
32356;DHT22;62578;53.556;9.914;2022-08-04T00:56:04;26.20;63.60
32356;DHT22;62578;53.556;9.914;2022-08-04T00:58:46;26.20;63.40
32356;DHT22;62578;53.556;9.914;2022-08-04T01:04:15;26.20;63.30
32356;DHT22;62578;53.556;9.914;2022-08-04T01:15:15;26.10;63.00
32356;DHT22;62578;53.556;9.914;2022-08-04T01:20:20;26.10;62.70
32356;DHT22;62578;53.556;9.914;2022-08-04T01:23:20;26.20;62.60
32356;DHT22;62578;53.556;9.914;2022-08-04T01:26:15;26.20;62.50
32356;DHT22;62578;53.556;9.914;2022-08-04T01:34:16;26.10;62.30
32356;DHT22;62578;53.556;9.914;2022-08-04T01:36:57;26.10;62.30
32356;DHT22;62578;53.556;9.914;2022-08-04T01:39:30;26.20;62.20
32356;DHT22;62578;53.556;9.914;2022-08-04T01:42:06;26.20;62.10
32356;DHT22;62578;53.556;9.914;2022-08-04T01:44:35;26.20;62.00
32356;DHT22;62578;53.556;9.914;2022-08-04T01:47:02;26.10;61.80
32356;DHT22;62578;53.556;9.914;2022-08-04T01:49:29;26.10;61.80
32356;DHT22;62578;53.556;9.914;2022-08-04T01:51:56;26.10;61.90
32356;DHT22;62578;53.556;9.914;2022-08-04T01:54:23;26.10;61.90
32356;DHT22;62578;53.556;9.914;2022-08-04T01:56:49;26.10;62.00
32356;DHT22;62578;53.556;9.914;2022-08-04T01:59:18;26.10;61.90
32356;DHT22;62578;53.556;9.914;2022-08-04T02:01:44;26.10;61.90
32356;DHT22;62578;53.556;9.914;2022-08-04T02:04:17;26.10;61.80
32356;DHT22;62578;53.556;9.914;2022-08-04T02:12:02;26.10;61.50
32356;DHT22;62578;53.556;9.914;2022-08-04T02:14:30;26.10;61.50
32356;DHT22;62578;53.556;9.914;2022-08-04T02:17:21;26.10;61.50
32356;DHT22;62578;53.556;9.914;2022-08-04T02:20:18;26.10;61.50
32356;DHT22;62578;53.556;9.914;2022-08-04T02:25:27;26.10;61.40
32356;DHT22;62578;53.556;9.914;2022-08-04T02:27:54;26.10;61.40
32356;DHT22;62578;53.556;9.914;2022-08-04T02:30:21;26.10;61.30
32356;DHT22;62578;53.556;9.914;2022-08-04T02:32:51;26.10;61.10
32356;DHT22;62578;53.556;9.914;2022-08-04T02:35:25;26.10;61.10
32356;DHT22;62578;53.556;9.914;2022-08-04T02:38:06;26.10;61.10
32356;DHT22;62578;53.556;9.914;2022-08-04T02:40:35;26.10;61.00
32356;DHT22;62578;53.556;9.914;2022-08-04T02:43:05;26.10;61.00
32356;DHT22;62578;53.556;9.914;2022-08-04T02:45:35;26.10;61.00
32356;DHT22;62578;53.556;9.914;2022-08-04T02:48:02;26.10;61.00
32356;DHT22;62578;53.556;9.914;2022-08-04T02:50:32;26.10;60.90
32356;DHT22;62578;53.556;9.914;2022-08-04T02:52:59;26.10;60.80
32356;DHT22;62578;53.556;9.914;2022-08-04T02:55:28;26.10;60.70
32356;DHT22;62578;53.556;9.914;2022-08-04T02:57:57;26.10;60.70
32356;DHT22;62578;53.556;9.914;2022-08-04T03:00:23;26.10;60.70
32356;DHT22;62578;53.556;9.914;2022-08-04T03:34:59;26.10;60.90
32356;DHT22;62578;53.556;9.914;2022-08-04T04:00:07;26.00;61.00
32356;DHT22;62578;53.556;9.914;2022-08-04T04:11:26;25.90;61.30
32356;DHT22;62578;53.556;9.914;2022-08-04T04:31:01;25.80;61.90
32356;DHT22;62578;53.556;9.914;2022-08-04T04:37:05;25.80;62.00
32356;DHT22;62578;53.556;9.914;2022-08-04T04:44:47;25.80;62.80
32356;DHT22;62578;53.556;9.914;2022-08-04T04:52:39;25.90;62.20
32356;DHT22;62578;53.556;9.914;2022-08-04T04:57:40;25.90;63.10
32356;DHT22;62578;53.556;9.914;2022-08-04T05:00:08;25.90;63.10
32356;DHT22;62578;53.556;9.914;2022-08-04T05:11:12;25.90;62.10
32356;DHT22;62578;53.556;9.914;2022-08-04T05:13:51;26.00;62.20
32356;DHT22;62578;53.556;9.914;2022-08-04T05:22:09;26.20;60.70
32356;DHT22;62578;53.556;9.914;2022-08-04T05:24:42;26.20;60.60
32356;DHT22;62578;53.556;9.914;2022-08-04T05:27:19;26.30;60.20
32356;DHT22;62578;53.556;9.914;2022-08-04T05:29:53;26.30;59.90
32356;DHT22;62578;53.556;9.914;2022-08-04T05:32:25;26.40;59.80
32356;DHT22;62578;53.556;9.914;2022-08-04T05:34:59;26.40;59.70
32356;DHT22;62578;53.556;9.914;2022-08-04T05:37:27;26.40;59.50
32356;DHT22;62578;53.556;9.914;2022-08-04T05:40:02;26.40;59.40
32356;DHT22;62578;53.556;9.914;2022-08-04T05:42:31;26.50;59.30
32356;DHT22;62578;53.556;9.914;2022-08-04T05:44:58;26.50;59.30
32356;DHT22;62578;53.556;9.914;2022-08-04T05:47:25;26.50;59.20
32356;DHT22;62578;53.556;9.914;2022-08-04T05:49:53;26.50;59.10
32356;DHT22;62578;53.556;9.914;2022-08-04T05:52:20;26.50;58.90
32356;DHT22;62578;53.556;9.914;2022-08-04T05:54:48;26.60;59.00
32356;DHT22;62578;53.556;9.914;2022-08-04T05:57:15;26.60;59.00
32356;DHT22;62578;53.556;9.914;2022-08-04T05:59:41;26.60;59.00
32356;DHT22;62578;53.556;9.914;2022-08-04T06:02:11;26.60;58.80
32356;DHT22;62578;53.556;9.914;2022-08-04T06:04:40;26.60;58.80
32356;DHT22;62578;53.556;9.914;2022-08-04T06:07:07;26.60;58.70
32356;DHT22;62578;53.556;9.914;2022-08-04T06:09:33;26.60;58.60
32356;DHT22;62578;53.556;9.914;2022-08-04T06:12:01;26.60;58.60
32356;DHT22;62578;53.556;9.914;2022-08-04T06:14:32;26.60;58.50
32356;DHT22;62578;53.556;9.914;2022-08-04T06:17:01;26.60;58.50
32356;DHT22;62578;53.556;9.914;2022-08-04T06:19:29;26.60;58.40
32356;DHT22;62578;53.556;9.914;2022-08-04T06:21:57;26.60;58.40
32356;DHT22;62578;53.556;9.914;2022-08-04T06:24:25;26.70;58.40
32356;DHT22;62578;53.556;9.914;2022-08-04T06:26:54;26.70;58.40
32356;DHT22;62578;53.556;9.914;2022-08-04T06:29:22;26.70;58.60
32356;DHT22;62578;53.556;9.914;2022-08-04T06:32:06;26.70;58.60
32356;DHT22;62578;53.556;9.914;2022-08-04T06:34:53;26.70;58.50
32356;DHT22;62578;53.556;9.914;2022-08-04T06:37:20;26.70;58.50
32356;DHT22;62578;53.556;9.914;2022-08-04T06:39:46;26.70;58.40
32356;DHT22;62578;53.556;9.914;2022-08-04T06:42:12;26.70;58.40
32356;DHT22;62578;53.556;9.914;2022-08-04T06:44:39;26.70;58.30
32356;DHT22;62578;53.556;9.914;2022-08-04T06:47:07;26.70;58.50
32356;DHT22;62578;53.556;9.914;2022-08-04T06:49:35;26.70;58.20
32356;DHT22;62578;53.556;9.914;2022-08-04T06:52:03;26.80;58.90
32356;DHT22;62578;53.556;9.914;2022-08-04T06:54:29;26.70;58.10
32356;DHT22;62578;53.556;9.914;2022-08-04T06:56:56;26.80;58.20
32356;DHT22;62578;53.556;9.914;2022-08-04T06:59:23;26.70;58.10
32356;DHT22;62578;53.556;9.914;2022-08-04T07:01:50;26.80;58.20
32356;DHT22;62578;53.556;9.914;2022-08-04T07:04:17;26.80;58.30
32356;DHT22;62578;53.556;9.914;2022-08-04T07:06:43;26.80;58.40
32356;DHT22;62578;53.556;9.914;2022-08-04T07:09:09;26.80;58.40
32356;DHT22;62578;53.556;9.914;2022-08-04T07:11:35;26.80;58.20
32356;DHT22;62578;53.556;9.914;2022-08-04T07:14:02;26.80;58.10
32356;DHT22;62578;53.556;9.914;2022-08-04T07:16:29;26.80;58.10
32356;DHT22;62578;53.556;9.914;2022-08-04T07:18:56;26.80;58.10
32356;DHT22;62578;53.556;9.914;2022-08-04T07:21:22;26.80;58.00
32356;DHT22;62578;53.556;9.914;2022-08-04T07:23:51;26.90;58.10
32356;DHT22;62578;53.556;9.914;2022-08-04T07:26:17;26.80;57.80
32356;DHT22;62578;53.556;9.914;2022-08-04T07:28:44;26.80;57.80
32356;DHT22;62578;53.556;9.914;2022-08-04T07:31:14;26.80;57.80
32356;DHT22;62578;53.556;9.914;2022-08-04T07:33:41;26.80;57.80
32356;DHT22;62578;53.556;9.914;2022-08-04T07:36:08;26.90;57.90
32356;DHT22;62578;53.556;9.914;2022-08-04T07:38:33;26.90;57.80
32356;DHT22;62578;53.556;9.914;2022-08-04T07:40:59;26.90;57.80
32356;DHT22;62578;53.556;9.914;2022-08-04T07:43:25;26.90;57.70
32356;DHT22;62578;53.556;9.914;2022-08-04T07:45:52;26.90;57.70
32356;DHT22;62578;53.556;9.914;2022-08-04T07:48:17;26.90;57.60
32356;DHT22;62578;53.556;9.914;2022-08-04T07:50:47;26.90;57.60
32356;DHT22;62578;53.556;9.914;2022-08-04T07:53:13;26.90;57.50
32356;DHT22;62578;53.556;9.914;2022-08-04T07:55:39;26.90;57.50
32356;DHT22;62578;53.556;9.914;2022-08-04T07:58:04;26.90;57.50
32356;DHT22;62578;53.556;9.914;2022-08-04T08:00:30;26.90;57.40
32356;DHT22;62578;53.556;9.914;2022-08-04T08:02:57;26.90;57.40
32356;DHT22;62578;53.556;9.914;2022-08-04T08:05:23;26.90;57.30
32356;DHT22;62578;53.556;9.914;2022-08-04T08:07:50;26.90;57.30
32356;DHT22;62578;53.556;9.914;2022-08-04T08:10:16;26.90;57.30
32356;DHT22;62578;53.556;9.914;2022-08-04T08:12:43;26.90;57.20
32356;DHT22;62578;53.556;9.914;2022-08-04T08:15:10;26.90;57.20
32356;DHT22;62578;53.556;9.914;2022-08-04T08:17:37;27.00;57.20
32356;DHT22;62578;53.556;9.914;2022-08-04T08:20:05;26.90;57.50
32356;DHT22;62578;53.556;9.914;2022-08-04T08:22:31;27.00;57.30
32356;DHT22;62578;53.556;9.914;2022-08-04T08:24:57;27.00;57.30
32356;DHT22;62578;53.556;9.914;2022-08-04T08:27:22;27.00;57.30
32356;DHT22;62578;53.556;9.914;2022-08-04T08:29:48;27.00;57.20
32356;DHT22;62578;53.556;9.914;2022-08-04T08:32:14;27.00;57.10
32356;DHT22;62578;53.556;9.914;2022-08-04T08:34:41;27.00;57.00
32356;DHT22;62578;53.556;9.914;2022-08-04T08:37:31;27.10;57.20
32356;DHT22;62578;53.556;9.914;2022-08-04T08:48:20;27.10;57.80
32356;DHT22;62578;53.556;9.914;2022-08-04T09:10:45;27.20;57.30
32356;DHT22;62578;53.556;9.914;2022-08-04T09:13:22;27.20;57.20
32356;DHT22;62578;53.556;9.914;2022-08-04T09:16:16;27.20;57.10
32356;DHT22;62578;53.556;9.914;2022-08-04T09:19:07;27.20;57.00
32356;DHT22;62578;53.556;9.914;2022-08-04T09:21:50;27.20;56.90
32356;DHT22;62578;53.556;9.914;2022-08-04T09:27:25;27.30;57.00
32356;DHT22;62578;53.556;9.914;2022-08-04T09:30:08;27.30;56.90
32356;DHT22;62578;53.556;9.914;2022-08-04T09:35:22;27.30;57.10
32356;DHT22;62578;53.556;9.914;2022-08-04T09:38:17;27.30;56.90
32356;DHT22;62578;53.556;9.914;2022-08-04T09:46:22;27.30;56.80
32356;DHT22;62578;53.556;9.914;2022-08-04T09:48:53;27.30;56.80
32356;DHT22;62578;53.556;9.914;2022-08-04T09:54:27;27.30;57.30
32356;DHT22;62578;53.556;9.914;2022-08-04T09:57:25;27.30;56.70
32356;DHT22;62578;53.556;9.914;2022-08-04T10:00:10;27.30;56.60
32356;DHT22;62578;53.556;9.914;2022-08-04T10:02:40;27.30;56.70
32356;DHT22;62578;53.556;9.914;2022-08-04T10:05:21;27.30;56.80
32356;DHT22;62578;53.556;9.914;2022-08-04T10:10:50;27.40;56.70
32356;DHT22;62578;53.556;9.914;2022-08-04T10:13:45;27.40;56.90
32356;DHT22;62578;53.556;9.914;2022-08-04T10:16:55;27.40;56.90
32356;DHT22;62578;53.556;9.914;2022-08-04T10:19:26;27.40;56.90
32356;DHT22;62578;53.556;9.914;2022-08-04T10:22:45;27.40;56.90
32356;DHT22;62578;53.556;9.914;2022-08-04T10:27:50;27.40;56.90
32356;DHT22;62578;53.556;9.914;2022-08-04T10:30:18;27.40;56.60
32356;DHT22;62578;53.556;9.914;2022-08-04T10:32:59;27.40;56.60
32356;DHT22;62578;53.556;9.914;2022-08-04T10:35:32;27.50;56.50
32356;DHT22;62578;53.556;9.914;2022-08-04T10:41:10;27.50;56.40
32356;DHT22;62578;53.556;9.914;2022-08-04T10:46:40;27.50;56.40
32356;DHT22;62578;53.556;9.914;2022-08-04T10:52:18;27.50;56.40
32356;DHT22;62578;53.556;9.914;2022-08-04T10:55:05;27.50;56.20
32356;DHT22;62578;53.556;9.914;2022-08-04T10:57:47;27.50;56.20
32356;DHT22;62578;53.556;9.914;2022-08-04T11:00:19;27.50;56.80
32356;DHT22;62578;53.556;9.914;2022-08-04T11:02:58;27.50;56.00
32356;DHT22;62578;53.556;9.914;2022-08-04T11:05:48;27.60;56.20
32356;DHT22;62578;53.556;9.914;2022-08-04T11:10:47;27.60;56.20
32356;DHT22;62578;53.556;9.914;2022-08-04T11:13:16;27.60;56.10
32356;DHT22;62578;53.556;9.914;2022-08-04T11:15:55;27.60;56.10
32356;DHT22;62578;53.556;9.914;2022-08-04T11:18:33;27.60;56.60
32356;DHT22;62578;53.556;9.914;2022-08-04T11:21:11;27.60;56.10
32356;DHT22;62578;53.556;9.914;2022-08-04T11:23:53;27.60;56.00
32356;DHT22;62578;53.556;9.914;2022-08-04T11:26:50;27.60;56.00
32356;DHT22;62578;53.556;9.914;2022-08-04T11:29:28;27.60;56.00
32356;DHT22;62578;53.556;9.914;2022-08-04T11:31:58;27.60;56.00
32356;DHT22;62578;53.556;9.914;2022-08-04T11:34:26;27.60;55.90
32356;DHT22;62578;53.556;9.914;2022-08-04T11:37:05;27.70;56.60
32356;DHT22;62578;53.556;9.914;2022-08-04T11:39:47;27.70;56.60
32356;DHT22;62578;53.556;9.914;2022-08-04T11:42:21;27.70;55.90
32356;DHT22;62578;53.556;9.914;2022-08-04T11:47:40;27.70;55.80
32356;DHT22;62578;53.556;9.914;2022-08-04T11:52:53;27.70;55.70
32356;DHT22;62578;53.556;9.914;2022-08-04T11:55:20;27.70;55.60
32356;DHT22;62578;53.556;9.914;2022-08-04T11:57:47;27.70;55.60
32356;DHT22;62578;53.556;9.914;2022-08-04T12:00:15;27.70;55.60
32356;DHT22;62578;53.556;9.914;2022-08-04T12:05:24;27.80;55.50
32356;DHT22;62578;53.556;9.914;2022-08-04T12:14:20;27.80;55.40
32356;DHT22;62578;53.556;9.914;2022-08-04T12:17:00;27.80;55.30
32356;DHT22;62578;53.556;9.914;2022-08-04T12:19:49;27.80;55.30
32356;DHT22;62578;53.556;9.914;2022-08-04T12:22:21;27.80;55.30
32356;DHT22;62578;53.556;9.914;2022-08-04T12:25:08;27.80;56.00
32356;DHT22;62578;53.556;9.914;2022-08-04T12:28:02;27.80;55.20
32356;DHT22;62578;53.556;9.914;2022-08-04T12:30:39;27.80;55.20
32356;DHT22;62578;53.556;9.914;2022-08-04T12:33:36;27.80;55.20
32356;DHT22;62578;53.556;9.914;2022-08-04T12:36:16;27.80;55.20
32356;DHT22;62578;53.556;9.914;2022-08-04T12:38:49;27.80;55.20
32356;DHT22;62578;53.556;9.914;2022-08-04T12:41:22;27.80;55.20
32356;DHT22;62578;53.556;9.914;2022-08-04T12:43:49;27.80;55.20
32356;DHT22;62578;53.556;9.914;2022-08-04T12:46:24;27.80;55.20
32356;DHT22;62578;53.556;9.914;2022-08-04T12:48:51;27.90;55.20
32356;DHT22;62578;53.556;9.914;2022-08-04T12:51:25;27.90;55.20
32356;DHT22;62578;53.556;9.914;2022-08-04T12:53:52;27.90;55.20
32356;DHT22;62578;53.556;9.914;2022-08-04T12:56:26;27.90;55.20
32356;DHT22;62578;53.556;9.914;2022-08-04T12:58:59;27.90;55.10
32356;DHT22;62578;53.556;9.914;2022-08-04T13:01:26;27.90;55.10
32356;DHT22;62578;53.556;9.914;2022-08-04T13:06:35;27.90;55.00
32356;DHT22;62578;53.556;9.914;2022-08-04T13:09:07;27.90;55.00
32356;DHT22;62578;53.556;9.914;2022-08-04T13:11:42;27.90;55.00
32356;DHT22;62578;53.556;9.914;2022-08-04T13:14:11;28.00;55.00
32356;DHT22;62578;53.556;9.914;2022-08-04T13:16:37;28.00;55.00
32356;DHT22;62578;53.556;9.914;2022-08-04T13:19:06;28.00;55.00
32356;DHT22;62578;53.556;9.914;2022-08-04T13:21:33;28.00;54.90
32356;DHT22;62578;53.556;9.914;2022-08-04T13:24:04;28.00;54.90
32356;DHT22;62578;53.556;9.914;2022-08-04T13:26:31;28.00;54.80
32356;DHT22;62578;53.556;9.914;2022-08-04T13:29:02;28.00;54.40
32356;DHT22;62578;53.556;9.914;2022-08-04T13:31:30;28.00;53.50
32356;DHT22;62578;53.556;9.914;2022-08-04T13:34:05;28.00;52.90
32356;DHT22;62578;53.556;9.914;2022-08-04T13:36:34;28.00;52.00
32356;DHT22;62578;53.556;9.914;2022-08-04T13:39:07;28.00;52.50
32356;DHT22;62578;53.556;9.914;2022-08-04T13:41:35;28.10;50.80
32356;DHT22;62578;53.556;9.914;2022-08-04T13:44:05;28.10;51.20
32356;DHT22;62578;53.556;9.914;2022-08-04T13:46:43;28.10;50.90
32356;DHT22;62578;53.556;9.914;2022-08-04T13:49:14;28.10;51.60
32356;DHT22;62578;53.556;9.914;2022-08-04T13:51:41;28.10;50.80
32356;DHT22;62578;53.556;9.914;2022-08-04T13:54:11;28.20;50.90
32356;DHT22;62578;53.556;9.914;2022-08-04T13:56:40;28.10;50.80
32356;DHT22;62578;53.556;9.914;2022-08-04T13:59:10;28.10;51.00
32356;DHT22;62578;53.556;9.914;2022-08-04T14:01:43;28.10;51.10
32356;DHT22;62578;53.556;9.914;2022-08-04T14:04:12;28.10;51.20
32356;DHT22;62578;53.556;9.914;2022-08-04T14:06:54;28.20;51.30
32356;DHT22;62578;53.556;9.914;2022-08-04T14:09:24;28.20;51.10
32356;DHT22;62578;53.556;9.914;2022-08-04T14:11:53;28.20;51.50
32356;DHT22;62578;53.556;9.914;2022-08-04T14:17:12;28.20;51.70
32356;DHT22;62578;53.556;9.914;2022-08-04T14:19:57;28.20;51.60
32356;DHT22;62578;53.556;9.914;2022-08-04T14:27:39;28.20;52.10
32356;DHT22;62578;53.556;9.914;2022-08-04T14:30:07;28.20;52.20
32356;DHT22;62578;53.556;9.914;2022-08-04T14:35:21;28.30;52.00
32356;DHT22;62578;53.556;9.914;2022-08-04T14:38:08;28.30;52.20
32356;DHT22;62578;53.556;9.914;2022-08-04T14:40:36;28.20;52.10
32356;DHT22;62578;53.556;9.914;2022-08-04T14:43:03;28.20;52.40
32356;DHT22;62578;53.556;9.914;2022-08-04T14:45:37;28.30;52.40
32356;DHT22;62578;53.556;9.914;2022-08-04T14:48:12;28.30;52.30
32356;DHT22;62578;53.556;9.914;2022-08-04T14:50:43;28.40;52.20
32356;DHT22;62578;53.556;9.914;2022-08-04T14:53:13;28.40;52.20
32356;DHT22;62578;53.556;9.914;2022-08-04T14:55:49;28.40;52.30
32356;DHT22;62578;53.556;9.914;2022-08-04T15:00:48;28.40;52.20
32356;DHT22;62578;53.556;9.914;2022-08-04T15:03:14;28.40;52.20
32356;DHT22;62578;53.556;9.914;2022-08-04T15:05:44;28.50;52.20
32356;DHT22;62578;53.556;9.914;2022-08-04T15:08:12;28.50;52.10
32356;DHT22;62578;53.556;9.914;2022-08-04T15:10:38;28.50;52.20
32356;DHT22;62578;53.556;9.914;2022-08-04T15:13:05;28.40;52.30
32356;DHT22;62578;53.556;9.914;2022-08-04T15:15:32;28.40;52.60
32356;DHT22;62578;53.556;9.914;2022-08-04T15:17:58;28.30;52.70
32356;DHT22;62578;53.556;9.914;2022-08-04T15:20:24;28.20;52.70
32356;DHT22;62578;53.556;9.914;2022-08-04T15:22:50;28.30;52.80
32356;DHT22;62578;53.556;9.914;2022-08-04T15:25:16;28.30;52.80
32356;DHT22;62578;53.556;9.914;2022-08-04T15:27:45;28.40;52.70
32356;DHT22;62578;53.556;9.914;2022-08-04T15:30:13;28.40;52.60
32356;DHT22;62578;53.556;9.914;2022-08-04T15:32:45;28.50;52.60
32356;DHT22;62578;53.556;9.914;2022-08-04T15:35:17;28.40;52.50
32356;DHT22;62578;53.556;9.914;2022-08-04T15:45:54;28.50;52.40
32356;DHT22;62578;53.556;9.914;2022-08-04T15:53:26;28.50;52.70
32356;DHT22;62578;53.556;9.914;2022-08-04T15:55:53;28.50;52.80
32356;DHT22;62578;53.556;9.914;2022-08-04T15:58:19;28.50;52.80
32356;DHT22;62578;53.556;9.914;2022-08-04T16:16:30;28.40;53.40
32356;DHT22;62578;53.556;9.914;2022-08-04T16:19:06;28.40;53.70
32356;DHT22;62578;53.556;9.914;2022-08-04T16:21:34;28.40;53.90
32356;DHT22;62578;53.556;9.914;2022-08-04T16:24:17;28.40;54.20
32356;DHT22;62578;53.556;9.914;2022-08-04T16:26:49;28.40;54.70
32356;DHT22;62578;53.556;9.914;2022-08-04T16:37:12;28.40;56.40
32356;DHT22;62578;53.556;9.914;2022-08-04T16:39:39;28.30;57.10
32356;DHT22;62578;53.556;9.914;2022-08-04T16:50:21;28.00;57.80
32356;DHT22;62578;53.556;9.914;2022-08-04T16:52:49;28.00;57.80
32356;DHT22;62578;53.556;9.914;2022-08-04T16:55:17;27.80;57.60
32356;DHT22;62578;53.556;9.914;2022-08-04T16:57:47;27.80;57.60
32356;DHT22;62578;53.556;9.914;2022-08-04T17:00:13;27.80;57.70
32356;DHT22;62578;53.556;9.914;2022-08-04T17:02:40;27.80;57.70
32356;DHT22;62578;53.556;9.914;2022-08-04T17:05:19;27.80;57.70
32356;DHT22;62578;53.556;9.914;2022-08-04T17:07:53;27.80;57.80
32356;DHT22;62578;53.556;9.914;2022-08-04T17:10:34;27.80;57.70
32356;DHT22;62578;53.556;9.914;2022-08-04T17:13:01;27.80;57.70
32356;DHT22;62578;53.556;9.914;2022-08-04T17:15:26;27.70;57.60
32356;DHT22;62578;53.556;9.914;2022-08-04T17:18:13;27.70;57.70
32356;DHT22;62578;53.556;9.914;2022-08-04T17:20:40;27.70;57.90
32356;DHT22;62578;53.556;9.914;2022-08-04T17:23:33;27.60;57.70
32356;DHT22;62578;53.556;9.914;2022-08-04T17:26:02;27.70;57.90
32356;DHT22;62578;53.556;9.914;2022-08-04T17:28:28;27.60;57.80
32356;DHT22;62578;53.556;9.914;2022-08-04T17:30:55;27.60;57.50
32356;DHT22;62578;53.556;9.914;2022-08-04T17:33:22;27.60;57.60
32356;DHT22;62578;53.556;9.914;2022-08-04T17:35:49;27.60;57.50
32356;DHT22;62578;53.556;9.914;2022-08-04T17:38:14;27.60;57.60
32356;DHT22;62578;53.556;9.914;2022-08-04T17:40:56;27.60;58.00
32356;DHT22;62578;53.556;9.914;2022-08-04T17:43:55;27.60;57.10
32356;DHT22;62578;53.556;9.914;2022-08-04T17:48:55;27.60;58.00
32356;DHT22;62578;53.556;9.914;2022-08-04T17:51:22;27.50;58.00
32356;DHT22;62578;53.556;9.914;2022-08-04T17:53:56;27.50;58.00
32356;DHT22;62578;53.556;9.914;2022-08-04T18:01:50;27.30;57.90
32356;DHT22;62578;53.556;9.914;2022-08-04T18:07:20;27.20;58.50
32356;DHT22;62578;53.556;9.914;2022-08-04T18:12:24;27.10;58.50
32356;DHT22;62578;53.556;9.914;2022-08-04T18:14:55;27.10;58.40
32356;DHT22;62578;53.556;9.914;2022-08-04T18:19:58;27.20;58.10
32356;DHT22;62578;53.556;9.914;2022-08-04T18:22:24;27.20;58.10
32356;DHT22;62578;53.556;9.914;2022-08-04T18:24:50;27.20;58.20
32356;DHT22;62578;53.556;9.914;2022-08-04T18:27:18;27.10;58.20
32356;DHT22;62578;53.556;9.914;2022-08-04T18:29:44;27.10;58.40
32356;DHT22;62578;53.556;9.914;2022-08-04T18:32:10;27.10;58.50
32356;DHT22;62578;53.556;9.914;2022-08-04T18:34:38;27.00;58.80
32356;DHT22;62578;53.556;9.914;2022-08-04T18:37:04;27.10;58.60
32356;DHT22;62578;53.556;9.914;2022-08-04T18:39:30;27.00;58.70
32356;DHT22;62578;53.556;9.914;2022-08-04T18:41:56;27.00;59.20
32356;DHT22;62578;53.556;9.914;2022-08-04T18:44:22;27.00;58.80
32356;DHT22;62578;53.556;9.914;2022-08-04T18:46:48;27.00;59.00
32356;DHT22;62578;53.556;9.914;2022-08-04T18:49:14;26.90;58.80
32356;DHT22;62578;53.556;9.914;2022-08-04T18:51:40;26.90;58.90
32356;DHT22;62578;53.556;9.914;2022-08-04T18:54:06;26.90;59.00
32356;DHT22;62578;53.556;9.914;2022-08-04T18:56:32;26.90;58.90
32356;DHT22;62578;53.556;9.914;2022-08-04T18:59:00;26.90;58.80
32356;DHT22;62578;53.556;9.914;2022-08-04T19:01:26;26.90;58.90
32356;DHT22;62578;53.556;9.914;2022-08-04T19:03:52;26.80;58.70
32356;DHT22;62578;53.556;9.914;2022-08-04T19:06:18;26.80;59.50
32356;DHT22;62578;53.556;9.914;2022-08-04T19:08:44;26.80;59.00
32356;DHT22;62578;53.556;9.914;2022-08-04T19:11:09;26.80;58.90
32356;DHT22;62578;53.556;9.914;2022-08-04T19:13:35;26.80;59.00
32356;DHT22;62578;53.556;9.914;2022-08-04T19:16:01;26.70;59.30
32356;DHT22;62578;53.556;9.914;2022-08-04T19:18:27;26.70;59.50
32356;DHT22;62578;53.556;9.914;2022-08-04T19:20:53;26.70;59.50
32356;DHT22;62578;53.556;9.914;2022-08-04T19:23:19;26.70;59.60
32356;DHT22;62578;53.556;9.914;2022-08-04T19:25:45;26.70;59.70
32356;DHT22;62578;53.556;9.914;2022-08-04T19:28:11;26.60;59.60
32356;DHT22;62578;53.556;9.914;2022-08-04T19:30:37;26.60;59.60
32356;DHT22;62578;53.556;9.914;2022-08-04T19:33:03;26.60;59.70
32356;DHT22;62578;53.556;9.914;2022-08-04T19:35:29;26.50;59.50
32356;DHT22;62578;53.556;9.914;2022-08-04T19:37:55;26.50;59.60
32356;DHT22;62578;53.556;9.914;2022-08-04T19:40:21;26.50;59.60
32356;DHT22;62578;53.556;9.914;2022-08-04T19:42:48;26.50;59.70
32356;DHT22;62578;53.556;9.914;2022-08-04T19:45:14;26.50;59.80
32356;DHT22;62578;53.556;9.914;2022-08-04T19:47:39;26.50;59.80
32356;DHT22;62578;53.556;9.914;2022-08-04T19:50:05;26.50;59.70
32356;DHT22;62578;53.556;9.914;2022-08-04T19:52:31;26.60;59.40
32356;DHT22;62578;53.556;9.914;2022-08-04T19:54:57;26.50;59.40
32356;DHT22;62578;53.556;9.914;2022-08-04T19:57:22;26.50;59.40
32356;DHT22;62578;53.556;9.914;2022-08-04T19:59:48;26.40;59.60
32356;DHT22;62578;53.556;9.914;2022-08-04T20:02:13;26.40;59.70
32356;DHT22;62578;53.556;9.914;2022-08-04T20:04:39;26.30;59.80
32356;DHT22;62578;53.556;9.914;2022-08-04T20:07:05;26.30;60.00
32356;DHT22;62578;53.556;9.914;2022-08-04T20:09:30;26.30;60.00
32356;DHT22;62578;53.556;9.914;2022-08-04T20:11:57;26.30;60.20
32356;DHT22;62578;53.556;9.914;2022-08-04T20:14:24;26.20;60.20
32356;DHT22;62578;53.556;9.914;2022-08-04T20:16:49;26.20;60.50
32356;DHT22;62578;53.556;9.914;2022-08-04T20:19:15;26.10;60.70
32356;DHT22;62578;53.556;9.914;2022-08-04T20:21:41;26.10;60.90
32356;DHT22;62578;53.556;9.914;2022-08-04T20:24:06;26.00;61.10
32356;DHT22;62578;53.556;9.914;2022-08-04T20:26:32;26.10;61.30
32356;DHT22;62578;53.556;9.914;2022-08-04T20:28:58;26.00;61.40
32356;DHT22;62578;53.556;9.914;2022-08-04T20:31:24;25.90;61.60
32356;DHT22;62578;53.556;9.914;2022-08-04T20:33:49;25.90;62.00
32356;DHT22;62578;53.556;9.914;2022-08-04T20:36:15;25.80;62.10
32356;DHT22;62578;53.556;9.914;2022-08-04T20:38:40;25.80;62.60
32356;DHT22;62578;53.556;9.914;2022-08-04T20:41:06;25.70;62.90
32356;DHT22;62578;53.556;9.914;2022-08-04T20:43:32;25.70;62.90
32356;DHT22;62578;53.556;9.914;2022-08-04T20:45:58;25.70;63.10
32356;DHT22;62578;53.556;9.914;2022-08-04T20:48:28;25.70;63.10
32356;DHT22;62578;53.556;9.914;2022-08-04T20:50:54;25.70;63.20